Ray, Michigan
Current Conditions -  °F | °C
As of 11:55 AM on Sunday 21 Dec 2014 (Local Time) from KMTC Reporting Station
Broken Clouds Broken Clouds  
Wind Chill: 25°   Ceiling: 3500
Heat Index: 34°   Visibility: 7mi
Dew Point: 25°   Wind: 12mph
Humidity: 71%   Direction: 190°S
Pressure: 30.27"   Gusts: NA
Location:  42.76°N, 82.92°W
Report Text: KMTC 211655Z 19010KT 7SM FEW023 BKN035 BKN200 01/M04 A3027 RMK SLP267 T00101037
Loading
Personal Weather Stations






























Interactive Weather Map New forecast layout! Learn more

10-Day Weather Forecast

Advertisements
Track Severe Weather on mobile